Alexander, Arkansas
Current Conditions -  °F | °C
As of 6:53 PM on Thursday 30 Oct 2014 (Local Time) from KLIT Reporting Station
Few Clouds Few Clouds  
Wind Chill: 63°   Ceiling: Unl
Heat Index: 63°   Visibility: 10mi
Dew Point: 46°   Wind: 5mph
Humidity: 54%   Direction: 210°SSW
Pressure: 30.04"   Gusts: NA
Location:  34.63°N, 92.44°W
Report Text: KLIT 302353Z 21004KT 10SM FEW090 17/08 A3004 RMK AO2 SLP173 60001 T01720078 10233 20172 55001
Loading
Personal Weather Stations






























Interactive Weather Map
Tropical Storm Tracking
New forecast layout! Learn more

10-Day Weather Forecast

Advertisements
Track Severe Weather on mobile